createdAt,value
2023-01-02T00:00:11.544Z,8.80
2023-01-02T00:02:44.645Z,15.23
2023-01-02T00:05:13.173Z,16.93
2023-01-02T00:07:41.399Z,12.33
2023-01-02T00:10:09.899Z,17.63
2023-01-02T00:12:38.171Z,14.17
2023-01-02T00:15:07.322Z,8.47
2023-01-02T00:17:35.894Z,19.33
2023-01-02T00:20:06.379Z,11.20
2023-01-02T00:22:34.485Z,8.63
2023-01-02T00:25:03.290Z,10.80
2023-01-02T00:27:31.478Z,15.40
2023-01-02T00:29:59.687Z,10.67
2023-01-02T00:32:28.052Z,14.70
2023-01-02T00:34:56.147Z,13.17
2023-01-02T00:37:25.586Z,12.97
2023-01-02T00:39:54.106Z,8.23
2023-01-02T00:42:22.194Z,14.27
2023-01-02T00:44:50.350Z,15.43
2023-01-02T00:47:18.584Z,12.67
2023-01-02T00:49:46.782Z,8.57
2023-01-02T00:52:15.015Z,9.30
2023-01-02T00:54:44.569Z,14.97
2023-01-02T00:57:12.769Z,11.77
2023-01-02T00:59:40.981Z,7.33
2023-01-02T01:02:09.919Z,6.90
2023-01-02T01:04:39.234Z,9.20
2023-01-02T01:07:07.424Z,12.03
2023-01-02T01:09:36.361Z,10.90
2023-01-02T01:12:06.129Z,7.40
2023-01-02T01:14:34.353Z,10.40
2023-01-02T01:17:02.962Z,7.87
2023-01-02T01:19:31.349Z,7.73
2023-01-02T01:21:59.497Z,4.80
2023-01-02T01:24:28.091Z,13.63
2023-01-02T01:26:56.213Z,5.50
2023-01-02T01:29:25.777Z,9.53
2023-01-02T01:31:54.346Z,15.10
2023-01-02T01:34:22.963Z,4.67
2023-01-02T01:36:51.144Z,10.77
2023-01-02T01:39:19.351Z,11.03
2023-01-02T01:41:47.906Z,8.60
2023-01-02T01:44:44.115Z,9.93
2023-01-02T01:47:22.535Z,6.20
2023-01-02T01:49:59.896Z,15.77
2023-01-02T01:52:33.097Z,5.63
2023-01-02T01:55:07.480Z,11.43
2023-01-02T01:57:40.371Z,4.87
2023-01-02T02:00:11.777Z,10.13
2023-01-02T02:02:43.458Z,9.37
2023-01-02T02:08:02.825Z,12.40
2023-01-02T02:10:30.971Z,9.57
2023-01-02T02:12:59.232Z,8.70
2023-01-02T02:15:34.217Z,9.17
2023-01-02T02:18:15.292Z,25.20
2023-01-02T02:20:51.318Z,10.07
2023-01-02T02:23:48.557Z,9.90
2023-01-02T02:26:59.555Z,14.90
2023-01-02T02:30:07.551Z,12.07
2023-01-02T02:33:14.379Z,12.63
2023-01-02T02:35:55.855Z,5.67
2023-01-02T02:38:42.268Z,13.87
2023-01-02T02:41:17.345Z,6.77
2023-01-02T02:43:56.695Z,12.80
2023-01-02T02:46:32.822Z,6.77
2023-01-02T02:49:07.842Z,18.23
2023-01-02T02:51:40.468Z,6.47
2023-01-02T02:54:15.756Z,11.23
2023-01-02T02:56:46.328Z,11.33
2023-01-02T02:59:14.751Z,7.33
2023-01-02T03:01:44.382Z,15.00
2023-01-02T03:04:18.525Z,5.00
2023-01-02T03:07:01.103Z,11.57
2023-01-02T03:09:40.443Z,6.23
2023-01-02T03:12:20.724Z,9.40
2023-01-02T03:14:58.722Z,8.60
2023-01-02T03:17:36.046Z,2.67
2023-01-02T03:20:10.067Z,4.20
2023-01-02T03:22:41.856Z,10.17
2023-01-02T03:25:12.154Z,12.20
2023-01-02T03:27:44.789Z,9.97
2023-01-02T03:30:17.908Z,8.00
2023-01-02T03:32:52.058Z,3.63
2023-01-02T03:35:34.211Z,6.93
2023-01-02T03:38:06.464Z,7.87
2023-01-02T03:40:40.323Z,5.97
2023-01-02T03:43:13.263Z,4.23
2023-01-02T03:45:47.173Z,8.73
2023-01-02T03:48:24.968Z,5.50
2023-01-02T03:50:56.196Z,7.63
2023-01-02T03:53:25.128Z,5.83
2023-01-02T03:56:03.169Z,11.87
2023-01-02T03:58:39.134Z,9.87
2023-01-02T04:01:10.569Z,16.60
2023-01-02T04:03:44.132Z,14.63
2023-01-02T04:06:16.067Z,9.77
2023-01-02T04:08:49.842Z,3.63
2023-01-02T04:11:22.145Z,11.47
2023-01-02T04:13:55.090Z,15.37
2023-01-02T04:16:27.653Z,6.47
2023-01-02T04:19:02.781Z,2.87
2023-01-02T04:21:35.537Z,9.13
2023-01-02T04:24:09.308Z,10.27
2023-01-02T04:26:43.892Z,6.10
2023-01-02T04:29:12.270Z,5.87
2023-01-02T04:31:46.021Z,4.33
2023-01-02T04:34:18.304Z,10.47
2023-01-02T04:36:47.625Z,9.13
2023-01-02T04:39:15.868Z,2.70
2023-01-02T04:41:44.487Z,11.60
2023-01-02T04:44:13.044Z,8.53
2023-01-02T04:46:41.327Z,11.77
2023-01-02T04:49:10.854Z,2.13
2023-01-02T04:51:40.788Z,11.07
2023-01-02T04:54:11.524Z,13.43
2023-01-02T04:56:39.762Z,12.27
2023-01-02T04:59:08.173Z,10.20
2023-01-02T05:01:36.521Z,22.73
2023-01-02T05:04:04.770Z,11.77
2023-01-02T05:06:34.041Z,5.40
2023-01-02T05:09:03.540Z,8.17
2023-01-02T05:11:32.193Z,5.43
2023-01-02T05:14:06.979Z,8.10
2023-01-02T05:16:35.874Z,11.37
2023-01-02T05:19:04.264Z,15.90
2023-01-02T05:21:49.618Z,9.57
2023-01-02T05:24:19.283Z,11.70
2023-01-02T05:26:47.423Z,10.93
2023-01-02T05:29:15.719Z,9.40
2023-01-02T05:31:44.526Z,10.20
2023-01-02T05:34:15.652Z,10.27
2023-01-02T05:36:43.910Z,10.50
2023-01-02T05:39:14.523Z,8.93
2023-01-02T05:41:44.194Z,7.50
2023-01-02T05:44:12.558Z,6.07
2023-01-02T05:46:41.644Z,15.30
2023-01-02T05:49:10.998Z,3.90
2023-01-02T05:51:39.525Z,13.70
2023-01-02T05:54:09.088Z,10.83
2023-01-02T05:56:37.275Z,10.97
2023-01-02T05:59:08.441Z,13.20
2023-01-02T06:01:36.815Z,8.00
2023-01-02T06:04:05.230Z,9.80
2023-01-02T06:06:35.344Z,4.70
2023-01-02T06:09:04.569Z,17.10
2023-01-02T06:11:33.812Z,20.40
2023-01-02T06:14:02.163Z,7.57
2023-01-02T06:16:32.258Z,7.77
2023-01-02T06:19:00.436Z,8.80
2023-01-02T06:21:28.662Z,12.40
2023-01-02T06:23:58.471Z,13.07
2023-01-02T06:26:34.285Z,6.27
2023-01-02T06:29:04.653Z,5.70
2023-01-02T06:31:34.348Z,7.03
2023-01-02T06:34:03.706Z,8.37
2023-01-02T06:36:33.744Z,8.27
2023-01-02T06:39:02.002Z,8.90
2023-01-02T06:41:30.231Z,5.37
2023-01-02T06:43:58.695Z,7.00
2023-01-02T06:46:26.927Z,11.23
2023-01-02T06:48:56.772Z,14.27
2023-01-02T06:51:25.597Z,6.30
2023-01-02T06:53:53.759Z,12.23
2023-01-02T06:56:22.352Z,13.43
2023-01-02T06:58:51.263Z,6.90
2023-01-02T07:01:21.571Z,10.10
2023-01-02T07:03:50.348Z,9.17
2023-01-02T07:06:22.125Z,5.23
2023-01-02T07:08:50.719Z,11.90
2023-01-02T07:11:20.913Z,6.47
2023-01-02T07:13:51.089Z,5.93
2023-01-02T07:16:21.365Z,3.90
2023-01-02T07:18:50.042Z,8.20
2023-01-02T07:21:19.661Z,13.17
2023-01-02T07:23:48.185Z,9.20
2023-01-02T07:26:16.967Z,25.40
2023-01-02T07:28:45.089Z,16.53
2023-01-02T07:31:15.166Z,15.97
2023-01-02T07:33:43.908Z,14.07
2023-01-02T07:36:14.109Z,18.07
2023-01-02T07:38:44.067Z,16.00
2023-01-02T07:41:16.868Z,16.83
2023-01-02T07:43:46.028Z,18.47
2023-01-02T07:46:15.635Z,26.60
2023-01-02T07:48:44.339Z,19.70
2023-01-02T07:51:13.350Z,38.03
2023-01-02T07:53:42.942Z,40.70
2023-01-02T07:56:11.699Z,23.23
2023-01-02T07:58:39.866Z,39.40
2023-01-02T08:01:09.030Z,26.73
2023-01-02T08:03:38.357Z,43.80
2023-01-02T08:06:09.293Z,121.83
2023-01-02T08:08:37.920Z,80.20
2023-01-02T08:11:09.200Z,35.00
2023-01-02T08:13:37.975Z,48.13
2023-01-02T08:16:08.037Z,22.63
2023-01-02T08:18:36.721Z,99.50
2023-01-02T08:21:05.873Z,126.57
2023-01-02T08:23:35.069Z,111.80
2023-01-02T08:26:05.660Z,25.77
2023-01-02T08:28:36.475Z,95.93
2023-01-02T08:31:09.634Z,40.43
2023-01-02T08:33:38.388Z,21.67
2023-01-02T08:36:07.002Z,20.73
2023-01-02T08:38:35.611Z,35.53
2023-01-02T08:41:04.158Z,46.60
2023-01-02T08:43:36.337Z,18.73
2023-01-02T08:46:06.007Z,41.03
2023-01-02T08:48:34.627Z,20.10
2023-01-02T08:51:02.848Z,32.63
2023-01-02T08:53:31.378Z,34.93
2023-01-02T08:56:17.990Z,19.47
2023-01-02T08:58:52.741Z,52.17
2023-01-02T09:01:21.826Z,51.87
2023-01-02T09:03:50.849Z,42.93
2023-01-02T09:06:22.018Z,43.37
2023-01-02T09:08:52.316Z,42.43
2023-01-02T09:11:23.877Z,32.67
2023-01-02T09:13:53.500Z,53.03
2023-01-02T09:16:22.703Z,54.63
2023-01-02T09:18:51.465Z,103.40
2023-01-02T09:21:19.982Z,123.23
2023-01-02T09:23:48.560Z,24.93
2023-01-02T09:26:17.069Z,23.43
2023-01-02T09:28:45.362Z,25.90
2023-01-02T09:31:19.436Z,31.53
2023-01-02T09:33:48.824Z,25.70
2023-01-02T09:36:18.720Z,30.90
2023-01-02T09:38:52.765Z,26.23
2023-01-02T09:41:32.679Z,41.33
2023-01-02T09:44:04.701Z,43.33
2023-01-02T09:46:41.343Z,41.87
2023-01-02T09:49:13.599Z,40.40
2023-01-02T09:51:42.367Z,29.30
2023-01-02T09:54:21.003Z,64.93
2023-01-02T09:56:53.319Z,36.53
2023-01-02T09:59:30.338Z,49.93
2023-01-02T10:02:14.397Z,40.70
2023-01-02T10:05:00.032Z,37.77
2023-01-02T10:07:36.287Z,55.93
2023-01-02T10:10:09.407Z,35.00
2023-01-02T10:12:45.333Z,42.53
2023-01-02T10:15:27.017Z,37.90
2023-01-02T10:18:01.831Z,40.27
2023-01-02T10:20:36.989Z,44.37
2023-01-02T10:23:12.199Z,44.27
2023-01-02T10:25:49.494Z,52.33
2023-01-02T10:28:28.223Z,50.40
2023-01-02T10:31:06.963Z,41.73
2023-01-02T10:33:45.167Z,27.93
2023-01-02T10:36:24.174Z,43.73
2023-01-02T10:38:53.232Z,36.80
2023-01-02T10:41:21.473Z,47.30
2023-01-02T10:43:54.615Z,54.90
2023-01-02T10:46:22.883Z,54.07
2023-01-02T10:48:52.858Z,34.47
2023-01-02T10:51:21.715Z,31.87
2023-01-02T10:54:01.879Z,37.63
2023-01-02T10:56:33.346Z,40.83
2023-01-02T10:59:02.428Z,46.67
2023-01-02T11:01:31.728Z,40.70
2023-01-02T11:04:22.967Z,48.67
2023-01-02T11:06:57.201Z,42.07
2023-01-02T11:09:27.311Z,57.00
2023-01-02T11:11:57.094Z,38.10
2023-01-02T11:14:30.434Z,51.07
2023-01-02T11:17:06.414Z,41.00
2023-01-02T11:19:41.894Z,62.23
2023-01-02T11:22:11.486Z,61.33
2023-01-02T11:24:59.902Z,50.30
2023-01-02T11:27:31.822Z,146.73
2023-01-02T11:30:00.926Z,64.53
2023-01-02T11:32:38.633Z,48.47
2023-01-02T11:35:33.272Z,57.07
2023-01-02T11:38:03.403Z,26.97
2023-01-02T11:40:33.346Z,31.20
2023-01-02T11:43:24.914Z,41.07
2023-01-02T11:45:54.207Z,25.57
2023-01-02T11:48:25.115Z,28.53
2023-01-02T11:50:55.011Z,38.77
2023-01-02T11:53:28.659Z,49.53
2023-01-02T11:56:01.750Z,35.40
2023-01-02T11:58:38.372Z,37.17
2023-01-02T12:01:12.883Z,25.13
2023-01-02T12:03:41.705Z,24.73
2023-01-02T12:06:18.168Z,24.00
2023-01-02T12:09:02.225Z,54.00
2023-01-02T12:11:45.598Z,36.00
2023-01-02T12:14:19.431Z,35.83
2023-01-02T12:17:02.364Z,32.90
2023-01-02T12:20:04.904Z,25.13
2023-01-02T12:23:05.000Z,28.77
2023-01-02T12:25:50.721Z,32.90
2023-01-02T12:29:00.523Z,42.73
2023-01-02T12:31:44.387Z,28.70
2023-01-02T12:34:21.844Z,23.80
2023-01-02T12:37:08.481Z,40.07
2023-01-02T12:40:06.047Z,35.80
2023-01-02T12:42:53.839Z,33.23
2023-01-02T12:45:32.250Z,49.53
2023-01-02T12:48:19.590Z,49.00
2023-01-02T12:51:09.731Z,36.80
2023-01-02T12:54:20.502Z,26.63
2023-01-02T12:56:52.729Z,31.70
2023-01-02T12:59:47.645Z,34.23
2023-01-02T13:02:22.407Z,28.77
2023-01-02T13:04:54.923Z,30.57
2023-01-02T13:07:33.147Z,35.20
2023-01-02T13:10:05.003Z,47.93
2023-01-02T13:12:36.859Z,41.47
2023-01-02T13:15:12.614Z,40.90
2023-01-02T13:17:53.466Z,24.47
2023-01-02T13:20:34.030Z,41.03
2023-01-02T13:23:09.367Z,45.13
2023-01-02T13:25:41.416Z,25.37
2023-01-02T13:28:14.575Z,53.23
2023-01-02T13:31:11.228Z,33.40
2023-01-02T13:33:46.877Z,22.83
2023-01-02T13:36:20.845Z,22.00
2023-01-02T13:38:52.403Z,41.10
2023-01-02T13:41:21.563Z,37.73
2023-01-02T13:43:55.413Z,22.83
2023-01-02T13:47:01.638Z,34.40
2023-01-02T13:49:21.833Z,44.97
2023-01-02T13:51:50.159Z,40.80
2023-01-02T13:54:21.128Z,27.17
2023-01-02T13:57:18.949Z,21.97
2023-01-02T13:59:59.888Z,26.13
2023-01-02T14:02:28.707Z,24.60
2023-01-02T14:04:57.197Z,32.60
2023-01-02T14:07:49.703Z,24.93
2023-01-02T14:10:44.768Z,47.90
2023-01-02T14:13:29.784Z,23.60
2023-01-02T14:16:31.559Z,23.17
2023-01-02T14:19:18.578Z,36.13
2023-01-02T14:21:50.037Z,31.07
2023-01-02T14:24:31.883Z,27.23
2023-01-02T14:27:02.457Z,19.37
2023-01-02T14:29:32.455Z,32.83
2023-01-02T14:32:07.588Z,28.37
2023-01-02T14:34:43.167Z,20.33
2023-01-02T14:37:12.576Z,22.57
2023-01-02T14:39:40.969Z,22.17
2023-01-02T14:42:46.351Z,15.37
2023-01-02T14:45:19.716Z,21.50
2023-01-02T14:47:53.810Z,23.03
2023-01-02T14:50:25.183Z,29.30
2023-01-02T14:53:01.374Z,23.27
2023-01-02T14:55:37.891Z,22.37
2023-01-02T14:58:18.921Z,15.10
2023-01-02T15:00:49.423Z,17.67
2023-01-02T15:03:32.892Z,13.53
2023-01-02T15:06:06.582Z,13.23
2023-01-02T15:08:38.806Z,12.30
2023-01-02T15:11:36.695Z,14.97
2023-01-02T15:14:06.438Z,23.83
2023-01-02T15:16:43.568Z,20.80
2023-01-02T15:19:20.648Z,17.73
2023-01-02T15:21:49.132Z,18.30
2023-01-02T15:24:22.667Z,22.23
2023-01-02T15:26:51.370Z,46.73
2023-01-02T15:29:27.698Z,60.87
2023-01-02T15:31:57.983Z,15.37
2023-01-02T15:34:30.215Z,25.03
2023-01-02T15:37:02.495Z,24.93
2023-01-02T15:39:36.806Z,11.63
2023-01-02T15:42:25.997Z,24.37
2023-01-02T15:45:13.649Z,21.73
2023-01-02T15:47:46.028Z,25.20
2023-01-02T15:50:19.233Z,32.17
2023-01-02T15:52:49.146Z,38.30
2023-01-02T15:55:19.315Z,27.33
2023-01-02T15:57:49.638Z,26.27
2023-01-02T16:00:36.173Z,40.53
2023-01-02T16:03:05.278Z,83.27
2023-01-02T16:05:48.359Z,161.63
2023-01-02T16:08:22.071Z,374.37
2023-01-02T16:11:01.122Z,176.50
2023-01-02T16:13:49.632Z,131.67
2023-01-02T16:16:20.053Z,214.53
2023-01-02T16:18:52.835Z,163.33
2023-01-02T16:21:23.101Z,230.23
2023-01-02T16:23:54.233Z,119.20
2023-01-02T16:26:28.931Z,145.80
2023-01-02T16:28:57.256Z,163.23
2023-01-02T16:31:26.393Z,312.83
2023-01-02T16:34:12.915Z,278.23
2023-01-02T16:36:42.783Z,194.57
2023-01-02T16:39:41.893Z,134.63
2023-01-02T16:42:41.898Z,82.43
2023-01-02T16:45:12.363Z,383.23
2023-01-02T16:47:43.829Z,184.50
2023-01-02T16:50:19.198Z,139.83
2023-01-02T16:52:49.651Z,132.27
2023-01-02T16:55:20.437Z,184.73
2023-01-02T16:57:50.456Z,174.87
2023-01-02T17:00:20.340Z,146.70
2023-01-02T17:02:49.322Z,213.53
2023-01-02T17:05:21.694Z,407.90
2023-01-02T17:07:51.448Z,332.13
2023-01-02T17:10:21.061Z,350.00
2023-01-02T17:12:49.146Z,406.07
2023-01-02T17:15:18.623Z,366.00
2023-01-02T17:17:47.304Z,321.00
2023-01-02T17:20:15.842Z,178.23
2023-01-02T17:22:44.079Z,39.77
2023-01-02T17:25:16.353Z,143.27
2023-01-02T17:27:45.537Z,66.47
2023-01-02T17:30:16.007Z,177.30
2023-01-02T17:32:45.514Z,159.77
2023-01-02T17:35:14.655Z,158.07
2023-01-02T17:37:42.931Z,157.97
2023-01-02T17:40:14.235Z,139.00
2023-01-02T17:42:42.785Z,107.67
2023-01-02T17:45:12.087Z,258.30
2023-01-02T17:48:00.725Z,148.87
2023-01-02T17:50:28.634Z,276.27
2023-01-02T17:52:56.833Z,174.27
2023-01-02T17:55:26.393Z,251.10
2023-01-02T17:57:54.676Z,272.37
2023-01-02T18:00:23.613Z,283.03
2023-01-02T18:02:53.589Z,330.20
2023-01-02T18:05:22.836Z,540.43
2023-01-02T18:07:51.061Z,392.73
2023-01-02T18:10:20.814Z,322.77
2023-01-02T18:12:51.552Z,271.87
2023-01-02T18:15:22.691Z,190.50
2023-01-02T18:17:51.531Z,253.63
2023-01-02T18:20:21.681Z,256.30
2023-01-02T18:22:51.204Z,358.30
2023-01-02T18:25:21.558Z,245.47
2023-01-02T18:27:52.037Z,393.33
2023-01-02T18:30:22.705Z,330.27
2023-01-02T18:32:54.401Z,281.07
2023-01-02T18:38:19.298Z,293.77
2023-01-02T18:40:47.545Z,264.73
2023-01-02T18:43:23.484Z,302.10
2023-01-02T18:45:54.871Z,204.23
2023-01-02T18:48:23.859Z,312.20
2023-01-02T18:50:59.149Z,194.53
2023-01-02T18:53:30.860Z,184.97
2023-01-02T18:56:02.837Z,32.27
2023-01-02T18:58:42.696Z,43.00
2023-01-02T19:01:28.533Z,87.50
2023-01-02T19:04:22.335Z,95.03
2023-01-02T19:06:57.448Z,64.00
2023-01-02T19:09:31.008Z,113.50
2023-01-02T19:12:19.176Z,162.37
2023-01-02T19:14:50.188Z,125.13
2023-01-02T19:17:25.067Z,203.50
2023-01-02T19:19:55.802Z,234.47
2023-01-02T19:22:25.811Z,290.77
2023-01-02T19:24:54.029Z,118.13
2023-01-02T19:27:27.264Z,36.17
2023-01-02T19:29:56.947Z,30.00
2023-01-02T19:32:28.693Z,17.47
2023-01-02T19:34:58.221Z,18.67
2023-01-02T19:37:39.540Z,17.77
2023-01-02T19:40:19.042Z,10.30
2023-01-02T19:42:49.189Z,11.63
2023-01-02T19:45:21.254Z,15.77
2023-01-02T19:47:50.934Z,23.37
2023-01-02T19:50:21.181Z,25.73
2023-01-02T19:52:50.791Z,19.83
2023-01-02T19:55:19.657Z,17.17
2023-01-02T19:57:48.526Z,13.13
2023-01-02T20:00:20.284Z,18.30
2023-01-02T20:02:50.475Z,12.67
2023-01-02T20:05:21.905Z,11.90
2023-01-02T20:07:51.993Z,17.23
2023-01-02T20:10:20.242Z,14.40
2023-01-02T20:12:48.471Z,14.07
2023-01-02T20:15:21.144Z,20.17
2023-01-02T20:17:49.512Z,16.37
2023-01-02T20:20:20.681Z,20.87
2023-01-02T20:22:51.923Z,18.37
2023-01-02T20:25:24.310Z,15.07
2023-01-02T20:27:53.936Z,15.93
2023-01-02T20:30:25.146Z,18.40
2023-01-02T20:32:53.556Z,14.40
2023-01-02T20:35:22.141Z,16.00
2023-01-02T20:37:50.808Z,15.23
2023-01-02T20:40:19.075Z,12.43
2023-01-02T20:42:47.261Z,13.50
2023-01-02T20:45:15.947Z,15.60
2023-01-02T20:47:45.529Z,8.30
2023-01-02T20:50:14.012Z,10.77
2023-01-02T20:52:42.464Z,8.40
2023-01-02T20:55:11.465Z,9.67
2023-01-02T20:57:39.904Z,9.07
2023-01-02T21:00:10.174Z,5.43
2023-01-02T21:02:38.548Z,5.83
2023-01-02T21:05:08.754Z,7.53
2023-01-02T21:07:36.999Z,6.50
2023-01-02T21:10:05.544Z,11.53
2023-01-02T21:12:51.483Z,10.07
2023-01-02T21:15:33.696Z,13.47
2023-01-02T21:18:02.142Z,16.30
2023-01-02T21:20:32.163Z,17.57
2023-01-02T21:23:00.324Z,12.97
2023-01-02T21:25:28.770Z,18.03
2023-01-02T21:27:56.992Z,18.47
2023-01-02T21:30:25.750Z,19.27
2023-01-02T21:32:54.343Z,17.53
2023-01-02T21:35:22.550Z,15.00
2023-01-02T21:37:52.111Z,12.83
2023-01-02T21:40:20.680Z,14.40
2023-01-02T21:42:49.131Z,15.30
2023-01-02T21:45:17.543Z,13.53
2023-01-02T21:47:46.063Z,11.87
2023-01-02T21:50:15.008Z,9.60
2023-01-02T21:52:43.131Z,10.70
2023-01-02T21:55:17.495Z,7.27
2023-01-02T21:58:12.292Z,8.03
2023-01-02T22:00:35.047Z,9.70
2023-01-02T22:03:03.828Z,9.33
2023-01-02T22:05:32.058Z,7.67
2023-01-02T22:08:00.845Z,9.67
2023-01-02T22:10:30.894Z,11.67
2023-01-02T22:12:59.767Z,9.87
2023-01-02T22:15:28.043Z,11.27
2023-01-02T22:17:56.178Z,12.27
2023-01-02T22:20:25.295Z,11.97
2023-01-02T22:22:53.765Z,14.27
2023-01-02T22:25:21.936Z,10.03
2023-01-02T22:27:51.561Z,14.23
2023-01-02T22:30:25.791Z,14.10
2023-01-02T22:33:00.349Z,7.47
2023-01-02T22:35:29.369Z,8.17
2023-01-02T22:37:59.630Z,5.77
2023-01-02T22:40:28.701Z,9.70
2023-01-02T22:43:01.078Z,12.73
2023-01-02T22:45:34.716Z,11.87
2023-01-02T22:48:07.177Z,12.40
2023-01-02T22:50:43.495Z,10.70
2023-01-02T22:53:19.879Z,11.47
2023-01-02T22:55:48.635Z,6.50
2023-01-02T22:58:19.939Z,4.90
2023-01-02T23:00:50.744Z,6.27
2023-01-02T23:03:19.075Z,5.60
2023-01-02T23:05:47.221Z,5.70
2023-01-02T23:08:15.439Z,5.53
2023-01-02T23:10:43.779Z,3.63
2023-01-02T23:13:12.047Z,4.47
2023-01-02T23:16:01.924Z,6.63
2023-01-02T23:18:54.510Z,3.53
2023-01-02T23:21:25.468Z,4.27
2023-01-02T23:23:54.609Z,4.20
2023-01-02T23:26:26.380Z,3.90
2023-01-02T23:29:06.563Z,3.73
2023-01-02T23:31:37.674Z,5.13
2023-01-02T23:34:06.668Z,4.93
2023-01-02T23:36:35.140Z,5.40
2023-01-02T23:39:03.837Z,6.27
2023-01-02T23:41:32.689Z,5.90
2023-01-02T23:44:01.049Z,7.07
2023-01-02T23:46:29.291Z,6.70
2023-01-02T23:48:59.439Z,8.87
2023-01-02T23:51:27.700Z,10.03
2023-01-02T23:53:56.069Z,11.37
2023-01-02T23:56:26.460Z,11.17
2023-01-02T23:58:56.449Z,13.50
